Time;durP1;ratioP1;P1;durP2;ratioP2;P2;SDS_P1;SDS_P2;PMS_P1;PMS_P2;Temp;Humidity;BMP_temperature;BMP_pressure;BME280_temperature;BME280_humidity;BME280_pressure;Samples;Min_cycle;Max_cycle;Signal;HPM_P1;HPM_P2
2022/05/29 00:05:34;;;;;;;12.55;2.67;;;;;;;10.14;78.39;100515.53;5067075;28;20051;-70
2022/05/29 00:08:01;;;;;;;10.45;2.38;;;;;;;10.17;78.42;100517.97;5045376;28;20052;-68
2022/05/29 00:10:29;;;;;;;11.90;1.90;;;;;;;10.11;79.55;100520.97;4983129;28;992166;-68
2022/05/29 00:12:56;;;;;;;14.43;2.92;;;;;;;10.09;81.00;100509.69;5054144;28;20066;-69
2022/05/29 00:15:23;;;;;;;10.68;2.20;;;;;;;10.04;81.21;100509.97;5062787;28;20503;-68
2022/05/29 00:18:15;;;;;;;7.70;2.17;;;;;;;9.95;82.35;100507.00;5057094;28;20052;-68
2022/05/29 00:20:48;;;;;;;10.35;2.00;;;;;;;9.96;81.97;100501.69;5059941;28;20099;-68
2022/05/29 00:23:15;;;;;;;9.38;1.67;;;;;;;9.93;81.64;100501.00;5076144;28;20079;-69
2022/05/29 00:25:44;;;;;;;12.07;2.20;;;;;;;9.94;81.40;100497.44;5079253;28;20486;-69
2022/05/29 00:28:11;;;;;;;12.68;2.10;;;;;;;9.91;80.95;100501.09;5036128;28;20480;-70
2022/05/29 00:30:40;;;;;;;6.55;1.50;;;;;;;9.91;80.48;100493.22;5074607;28;20053;-69
2022/05/29 00:33:08;;;;;;;9.52;2.03;;;;;;;9.94;81.07;100497.44;5062969;28;20052;-69
2022/05/29 00:35:39;;;;;;;11.95;2.45;;;;;;;9.98;80.61;100499.78;5041070;28;20067;-69
2022/05/29 00:38:10;;;;;;;8.40;1.75;;;;;;;9.94;81.00;100500.91;5046463;28;20040;-69
2022/05/29 00:41:02;;;;;;;10.75;2.13;;;;;;;9.88;80.49;100493.38;5035235;28;20532;-68
2022/05/29 00:43:29;;;;;;;9.77;2.08;;;;;;;9.89;79.62;100492.44;5056447;28;20052;-69
2022/05/29 00:45:59;;;;;;;11.15;2.20;;;;;;;9.87;79.61;100492.53;5051967;28;20525;-69
2022/05/29 00:48:27;;;;;;;10.93;2.42;;;;;;;9.89;79.77;100497.69;5050967;28;20556;-69
2022/05/29 00:50:59;;;;;;;10.40;1.75;;;;;;;9.92;79.51;100491.44;5064993;28;20084;-70
2022/05/29 00:53:28;;;;;;;12.13;2.10;;;;;;;9.88;79.42;100485.50;5034788;28;20052;-67
2022/05/29 00:56:02;;;;;;;7.82;2.22;;;;;;;9.92;79.61;100486.16;5062622;28;20062;-68
2022/05/29 00:58:30;;;;;;;8.30;2.25;;;;;;;9.89;78.68;100489.81;5027315;28;20407;-69
2022/05/29 01:00:57;;;;;;;9.95;2.22;;;;;;;9.84;78.75;100482.19;5022965;28;20075;-68
2022/05/29 01:03:24;;;;;;;8.32;1.90;;;;;;;9.83;78.25;100483.13;5051469;28;20097;-68
2022/05/29 01:05:52;;;;;;;10.27;2.20;;;;;;;9.83;78.95;100480.50;5052018;28;20511;-69
2022/05/29 01:08:23;;;;;;;8.45;2.30;;;;;;;9.83;78.39;100479.66;5041639;28;20040;-69
2022/05/29 01:10:50;;;;;;;10.32;2.53;;;;;;;9.85;78.09;100483.88;5081824;28;20036;-69
2022/05/29 01:13:31;;;;;;;10.57;2.05;;;;;;;9.80;78.71;100483.28;5068502;28;20056;-69
2022/05/29 01:16:06;;;;;;;16.75;2.17;;;;;;;9.81;78.35;100484.13;5023342;28;20048;-70
2022/05/29 01:19:12;;;;;;;8.90;1.92;;;;;;;9.85;78.55;100477.78;5076657;28;20044;-69
2022/05/29 01:22:02;;;;;;;10.55;1.92;;;;;;;9.82;78.38;100473.56;5058593;28;20538;-70
2022/05/29 01:24:58;;;;;;;10.07;2.08;;;;;;;9.80;78.40;100464.91;5034279;28;20048;-69
2022/05/29 01:31:33;;;;;;;6.72;1.67;;;;;;;9.74;78.95;100465.25;5049463;28;20041;-69
2022/05/29 01:34:51;;;;;;;11.43;2.15;;;;;;;9.76;78.57;100462.53;5038426;28;20132;-69
2022/05/29 01:37:24;;;;;;;;;;;;;;;9.77;79.28;100464.22;5052516;28;20132;-69
2022/05/29 01:40:05;;;;;;;10.90;1.48;;;;;;;9.73;78.87;100460.94;5036536;28;19927;-69
2022/05/29 01:42:49;;;;;;;8.40;1.73;;;;;;;9.74;79.47;100456.53;5049616;28;20056;-69
2022/05/29 01:45:26;;;;;;;12.57;2.22;;;;;;;9.70;79.18;100463.75;5041679;28;20052;-69
2022/05/29 01:48:16;;;;;;;10.20;2.40;;;;;;;9.65;79.66;100463.16;5048417;28;20048;-69
2022/05/29 01:50:53;;;;;;;10.48;2.58;;;;;;;9.67;80.18;100458.66;5050830;28;20048;-69
2022/05/29 01:53:25;;;;;;;7.68;1.70;;;;;;;9.70;80.12;100461.13;5035342;28;20041;-69
2022/05/29 01:56:00;;;;;;;12.68;2.92;;;;;;;9.72;79.99;100466.28;5064345;28;20066;-69
2022/05/29 01:58:37;;;;;;;14.93;2.07;;;;;;;9.68;80.88;100477.91;5042598;28;20059;-69
2022/05/29 02:01:06;;;;;;;8.38;1.77;;;;;;;9.67;80.81;100461.28;5050234;28;20506;-69
2022/05/29 02:03:38;;;;;;;6.93;1.83;;;;;;;9.69;80.57;100458.59;5034281;28;20132;-69
2022/05/29 02:06:10;;;;;;;6.30;1.75;;;;;;;9.72;80.24;100455.75;5049073;28;20239;-69
2022/05/29 02:09:05;;;;;;;8.10;2.05;;;;;;;9.74;80.14;100453.91;5056923;28;20052;-69
2022/05/29 02:11:32;;;;;;;7.32;1.67;;;;;;;9.77;80.24;100458.97;5044569;28;20056;-69
2022/05/29 02:14:07;;;;;;;11.98;2.30;;;;;;;9.78;80.01;100452.78;5049515;28;20056;-68
2022/05/29 02:16:44;;;;;;;9.40;1.98;;;;;;;9.80;79.88;100458.78;5036448;28;20055;-68
2022/05/29 02:19:23;;;;;;;10.35;2.38;;;;;;;9.71;80.24;100454.91;5032283;28;20064;-68
2022/05/29 02:22:06;;;;;;;8.32;1.98;;;;;;;9.71;80.73;100448.81;5033473;28;20271;-68
2022/05/29 02:24:44;;;;;;;9.50;2.40;;;;;;;9.71;80.86;100447.03;5047605;28;20460;-69
2022/05/29 02:27:34;;;;;;;6.90;2.30;;;;;;;9.63;80.67;100455.34;5054233;28;20085;-69
2022/05/29 02:30:03;;;;;;;9.18;2.45;;;;;;;9.71;80.27;100446.19;5052801;28;20048;-68
2022/05/29 02:32:56;;;;;;;13.70;2.05;;;;;;;9.76;80.56;100449.38;5044081;28;20063;-68
2022/05/29 02:35:35;;;;;;;9.15;2.10;;;;;;;9.71;80.78;100454.91;5035351;28;20062;-68
2022/05/29 02:38:06;;;;;;;9.00;2.42;;;;;;;9.70;80.46;100455.00;5046378;28;20448;-68
2022/05/29 02:40:51;;;;;;;6.60;1.75;;;;;;;9.72;80.06;100453.97;5028518;28;20045;-68
2022/05/29 02:43:33;;;;;;;16.47;2.77;;;;;;;9.64;79.92;100438.66;5053073;28;20127;-68
2022/05/29 02:46:12;;;;;;;8.95;2.13;;;;;;;9.68;80.15;100446.34;5067028;28;20451;-68
2022/05/29 02:49:00;;;;;;;6.45;1.73;;;;;;;9.69;79.75;100448.06;5044969;28;20052;-69
2022/05/29 02:51:32;;;;;;;7.68;1.95;;;;;;;9.74;80.47;100446.00;5017429;28;20351;-69
2022/05/29 02:53:59;;;;;;;10.70;3.05;;;;;;;9.77;80.16;100444.06;5016158;28;20044;-69
2022/05/29 02:56:26;;;;;;;9.27;1.85;;;;;;;9.76;79.77;100447.59;5047427;28;20056;-69
2022/05/29 02:58:56;;;;;;;8.95;1.90;;;;;;;9.75;80.06;100445.06;5051283;28;20045;-69
2022/05/29 03:01:31;;;;;;;8.05;2.03;;;;;;;9.76;79.47;100444.13;5052739;28;20051;-68
2022/05/29 03:04:26;;;;;;;9.07;2.10;;;;;;;9.74;79.65;100444.22;5055518;28;20044;-68
2022/05/29 03:07:11;;;;;;;12.85;3.40;;;;;;;9.71;79.71;100439.16;5045824;28;20047;-68
2022/05/29 03:10:01;;;;;;;6.80;1.60;;;;;;;9.70;79.61;100442.72;5031971;28;20055;-68
2022/05/29 03:12:44;;;;;;;7.68;2.28;;;;;;;9.71;80.11;100438.31;5036474;28;20114;-69
2022/05/29 03:15:44;;;;;;;8.00;2.65;;;;;;;9.73;79.64;100434.66;5056522;28;20134;-69
2022/05/29 03:18:17;;;;;;;6.88;2.13;;;;;;;9.73;79.78;100441.69;5044753;28;20418;-69
2022/05/29 03:20:58;;;;;;;8.25;2.20;;;;;;;9.75;79.99;100437.19;5062692;28;20522;-69
2022/05/29 03:23:29;;;;;;;14.13;2.55;;;;;;;9.70;80.67;100444.50;5027857;28;20553;-68
2022/05/29 03:26:03;;;;;;;5.00;1.48;;;;;;;9.72;80.23;100439.97;5062257;28;20425;-68
2022/05/29 03:28:39;;;;;;;8.02;2.85;;;;;;;9.76;80.71;100442.34;5044534;28;20136;-68
2022/05/29 03:31:07;;;;;;;;;;;;;;;9.75;80.46;100445.06;5050549;28;20455;-69
2022/05/29 03:33:34;;;;;;;7.18;1.85;;;;;;;9.70;81.16;100445.34;5041991;28;19919;-68
2022/05/29 03:36:06;;;;;;;9.77;2.40;;;;;;;9.66;81.71;100443.81;5044982;28;20055;-68
2022/05/29 03:38:33;;;;;;;8.75;2.25;;;;;;;9.69;81.36;100440.19;5036555;28;20063;-69
2022/05/29 03:41:11;;;;;;;6.28;1.65;;;;;;;9.70;81.56;100436.63;5059794;28;20049;-68
2022/05/29 03:43:40;;;;;;;10.52;2.30;;;;;;;9.69;82.02;100437.56;5054279;28;20451;-68
2022/05/29 03:46:07;;;;;;;9.40;2.33;;;;;;;9.61;82.27;100433.59;5052060;28;20525;-68
2022/05/29 03:48:35;;;;;;;13.68;2.67;;;;;;;9.58;82.39;100439.00;5030490;28;20207;-68
2022/05/29 03:51:06;;;;;;;16.60;2.40;;;;;;;9.58;82.74;100439.00;5035088;28;20458;-68
2022/05/29 03:53:33;;;;;;;8.45;3.05;;;;;;;9.64;82.80;100445.72;5046496;28;20205;-68
2022/05/29 03:56:01;;;;;;;12.43;3.40;;;;;;;9.62;83.18;100437.06;5051084;28;20054;-69
2022/05/29 03:58:28;;;;;;;12.48;3.03;;;;;;;9.63;82.79;100436.94;5021897;28;20645;-69
2022/05/29 04:00:55;;;;;;;8.93;2.58;;;;;;;9.69;83.11;100429.66;5063330;28;20051;-69
2022/05/29 04:03:22;;;;;;;6.47;2.17;;;;;;;9.71;82.97;100431.25;5046904;28;20049;-68
2022/05/29 04:05:51;;;;;;;7.63;2.42;;;;;;;9.75;82.90;100432.78;5058399;28;20048;-69
2022/05/29 04:13:50;;;;;;;6.05;2.33;;;;;;;9.81;82.33;100421.88;5040773;28;20063;-68
2022/05/29 04:16:17;;;;;;;9.00;2.10;;;;;;;9.88;82.43;100427.66;5012673;28;20067;-68
2022/05/29 04:18:44;;;;;;;10.07;2.15;;;;;;;9.94;82.84;100432.53;5060538;28;20057;-68
2022/05/29 04:21:11;;;;;;;12.35;2.55;;;;;;;9.93;82.71;100441.38;5048834;28;20416;-69
2022/05/29 04:23:39;;;;;;;11.52;3.30;;;;;;;9.95;82.11;100436.00;5049651;28;20068;-69
2022/05/29 04:26:07;;;;;;;11.75;3.42;;;;;;;9.99;82.61;100441.00;5047789;28;20064;-69
2022/05/29 04:28:34;;;;;;;7.95;2.33;;;;;;;10.01;82.32;100433.88;5048499;28;20048;-68
2022/05/29 04:31:01;;;;;;;7.90;3.13;;;;;;;10.01;82.71;100438.28;5047190;28;20380;-67
2022/05/29 04:33:28;;;;;;;8.38;2.50;;;;;;;9.93;83.25;100432.63;5034367;28;20048;-69
2022/05/29 04:35:56;;;;;;;9.55;2.90;;;;;;;9.97;82.78;100440.25;5037137;28;20139;-69
2022/05/29 04:38:24;;;;;;;12.82;2.85;;;;;;;10.03;82.58;100431.97;5065537;28;20040;-69
2022/05/29 04:40:52;;;;;;;10.50;2.58;;;;;;;10.13;82.45;100432.28;5031877;28;20049;-70
2022/05/29 04:43:19;;;;;;;11.57;3.00;;;;;;;10.21;82.54;100426.56;5028044;28;20054;-69
2022/05/29 04:45:47;;;;;;;9.70;2.65;;;;;;;10.25;81.98;100434.19;5015921;28;20051;-69
2022/05/29 04:48:16;;;;;;;8.25;2.33;;;;;;;10.32;81.71;100430.28;5016683;28;20101;-69
2022/05/29 04:50:55;;;;;;;9.00;2.90;;;;;;;10.30;81.93;100429.50;5049633;28;20066;-70
2022/05/29 04:53:23;;;;;;;10.85;2.67;;;;;;;10.28;81.89;100422.66;5034131;28;20220;-68
2022/05/29 04:55:55;;;;;;;7.82;2.35;;;;;;;10.35;81.67;100424.81;5066543;28;20147;-68
2022/05/29 04:58:24;;;;;;;9.55;2.40;;;;;;;10.46;81.07;100424.16;5029064;28;20078;-68
2022/05/29 05:01:02;;;;;;;6.25;2.80;;;;;;;10.43;81.64;100429.59;5041292;28;20085;-70
2022/05/29 05:03:30;;;;;;;9.30;2.88;;;;;;;10.52;81.06;100430.81;5040227;28;20575;-69
2022/05/29 05:05:58;;;;;;;6.78;2.35;;;;;;;10.53;80.84;100430.72;5044191;28;20052;-70
2022/05/29 05:08:25;;;;;;;8.68;2.28;;;;;;;10.51;81.07;100432.63;5019000;28;20464;-69
2022/05/29 05:10:52;;;;;;;6.20;2.53;;;;;;;10.51;80.98;100429.16;5050202;28;20079;-70
2022/05/29 05:13:19;;;;;;;10.07;2.63;;;;;;;10.60;81.25;100432.03;5036027;28;20043;-69
2022/05/29 05:15:47;;;;;;;7.60;2.72;;;;;;;10.63;80.68;100431.88;5076220;28;20048;-70
2022/05/29 05:18:14;;;;;;;9.85;2.17;;;;;;;10.70;80.85;100442.84;5030392;28;21137;-69
2022/05/29 05:20:42;;;;;;;11.63;3.75;;;;;;;10.59;80.24;100433.00;5059910;28;20611;-69
2022/05/29 05:23:09;;;;;;;10.52;3.15;;;;;;;10.59;80.78;100437.41;5069947;28;20056;-69
2022/05/29 05:25:37;;;;;;;7.15;2.15;;;;;;;10.56;80.61;100433.19;5039953;28;20115;-70
2022/05/29 05:28:04;;;;;;;7.07;2.45;;;;;;;10.61;80.99;100430.25;5032541;28;20087;-70
2022/05/29 05:30:32;;;;;;;9.15;2.40;;;;;;;10.60;81.12;100434.69;5042239;28;20767;-69
2022/05/29 05:32:59;;;;;;;11.35;2.95;;;;;;;10.67;80.84;100429.03;5059027;28;20573;-69
2022/05/29 05:35:27;;;;;;;10.20;2.13;;;;;;;10.79;80.93;100425.63;5077003;28;20049;-71
2022/05/29 05:37:56;;;;;;;14.27;3.70;;;;;;;10.89;80.21;100432.00;5054035;28;20051;-70
2022/05/29 05:40:23;;;;;;;13.00;3.72;;;;;;;10.76;80.49;100431.06;5021117;28;20451;-70
2022/05/29 05:42:50;;;;;;;9.82;2.50;;;;;;;10.60;80.99;100428.56;5020185;28;20044;-68
2022/05/29 05:45:18;;;;;;;11.65;2.97;;;;;;;10.64;81.08;100428.28;5016923;28;20045;-68
2022/05/29 05:47:45;;;;;;;8.93;2.47;;;;;;;10.54;81.87;100429.81;5031408;28;20111;-70
2022/05/29 05:50:12;;;;;;;9.50;2.75;;;;;;;10.62;81.62;100429.31;5048871;28;20040;-69
2022/05/29 05:52:39;;;;;;;10.25;2.55;;;;;;;10.68;81.10;100433.38;5014950;28;20055;-68
2022/05/29 05:55:10;;;;;;;8.95;2.67;;;;;;;10.75;81.05;100434.66;5033272;28;20402;-68
2022/05/29 05:57:38;;;;;;;8.27;2.50;;;;;;;10.83;80.69;100427.97;5020179;28;20051;-69
2022/05/29 06:00:10;;;;;;;10.98;2.90;;;;;;;10.82;80.27;100438.63;5033308;28;20540;-69
2022/05/29 06:02:40;;;;;;;9.75;2.75;;;;;;;10.78;80.60;100439.75;5029233;28;20341;-70
2022/05/29 06:05:09;;;;;;;9.43;2.35;;;;;;;10.78;80.84;100437.13;5021182;28;20041;-68
2022/05/29 06:07:36;;;;;;;18.48;3.40;;;;;;;10.72;80.15;100433.09;5035669;28;20515;-68
2022/05/29 06:10:04;;;;;;;11.77;2.45;;;;;;;10.82;80.16;100442.09;5041663;28;20557;-69
2022/05/29 06:12:31;;;;;;;7.53;2.40;;;;;;;10.85;80.54;100436.63;5035942;28;20052;-69
2022/05/29 06:14:59;;;;;;;14.10;3.65;;;;;;;10.90;79.84;100433.72;5050528;28;20040;-69
2022/05/29 06:17:26;;;;;;;12.75;2.92;;;;;;;10.94;79.79;100431.72;5049922;28;20052;-69
2022/05/29 06:19:54;;;;;;;10.25;3.13;;;;;;;11.05;80.14;100435.38;5029215;28;20059;-70
2022/05/29 06:22:22;;;;;;;16.38;2.88;;;;;;;11.15;79.09;100439.09;5034123;28;20483;-69
2022/05/29 06:24:49;;;;;;;13.75;3.28;;;;;;;11.22;78.92;100428.19;5045741;28;20135;-69
2022/05/29 06:27:17;;;;;;;10.45;2.53;;;;;;;11.29;78.27;100438.19;5033088;28;20479;-69
2022/05/29 06:29:47;;;;;;;9.20;2.40;;;;;;;11.40;78.34;100433.09;5013643;28;20063;-70
2022/05/29 06:32:15;;;;;;;15.07;3.53;;;;;;;11.43;77.82;100439.09;5064398;28;20155;-69
2022/05/29 06:34:42;;;;;;;10.15;3.08;;;;;;;11.18;78.49;100442.50;5029169;28;20055;-69
2022/05/29 06:37:10;;;;;;;11.60;2.80;;;;;;;11.10;78.92;100440.34;5034107;28;20045;-69
2022/05/29 06:39:38;;;;;;;13.20;3.38;;;;;;;11.22;78.81;100444.81;5047847;28;20044;-69
2022/05/29 06:42:06;;;;;;;7.97;2.78;;;;;;;11.28;78.02;100436.50;5053400;28;20173;-69
2022/05/29 06:44:35;;;;;;;9.18;2.80;;;;;;;11.51;78.01;100439.44;5041814;28;20496;-68
2022/05/29 06:47:04;;;;;;;9.93;2.70;;;;;;;11.71;76.44;100441.63;5048526;28;20550;-70
2022/05/29 06:49:32;;;;;;;8.27;3.10;;;;;;;11.97;75.67;100439.88;5054924;28;20048;-69
2022/05/29 06:51:59;;;;;;;9.25;2.40;;;;;;;12.21;75.41;100440.03;5030232;28;20049;-69
2022/05/29 06:54:27;;;;;;;11.32;3.75;;;;;;;12.30;73.06;100444.66;5046319;28;20467;-69
2022/05/29 06:56:54;;;;;;;9.63;3.00;;;;;;;12.41;73.11;100433.34;5032012;28;20040;-70
2022/05/29 06:59:21;;;;;;;8.68;2.30;;;;;;;12.47;72.65;100438.19;5070845;28;20047;-69
2022/05/29 07:07:24;;;;;;;12.25;2.88;;;;;;;12.00;73.58;100438.84;5036468;28;20047;-68
2022/05/29 07:09:51;;;;;;;10.05;2.92;;;;;;;12.10;73.40;100445.16;5040323;28;20056;-71
2022/05/29 07:12:27;;;;;;;8.10;2.38;;;;;;;12.02;73.31;100445.72;5041299;28;20119;-70
2022/05/29 07:15:00;;;;;;;5.63;2.38;;;;;;;12.02;73.59;100443.06;5058908;28;20131;-71
2022/05/29 07:17:28;;;;;;;9.40;2.83;;;;;;;12.14;73.24;100444.03;5011555;28;20055;-71
2022/05/29 07:19:55;;;;;;;8.52;2.40;;;;;;;12.41;72.17;100436.00;5028643;28;21131;-71
2022/05/29 07:22:22;;;;;;;12.68;3.00;;;;;;;12.75;71.74;100445.03;5052410;28;20123;-71
2022/05/29 07:24:50;;;;;;;10.43;2.47;;;;;;;12.84;69.87;100439.09;5030271;28;20053;-71
2022/05/29 07:27:17;;;;;;;11.43;2.53;;;;;;;12.95;69.04;100446.25;5034725;28;20043;-70
2022/05/29 07:29:44;;;;;;;12.07;2.50;;;;;;;13.01;68.67;100451.09;5028896;28;20048;-70
2022/05/29 07:32:12;;;;;;;10.13;2.40;;;;;;;12.88;68.25;100447.66;5074292;28;20123;-71
2022/05/29 07:34:43;;;;;;;10.40;2.67;;;;;;;12.85;68.25;100451.34;5028220;28;20071;-70
2022/05/29 07:37:14;;;;;;;11.50;2.53;;;;;;;12.65;68.71;100450.13;5047976;28;20044;-70
2022/05/29 07:39:44;;;;;;;8.45;2.00;;;;;;;12.65;68.73;100446.63;5030220;28;20049;-70
2022/05/29 07:44:57;;;;;;;10.45;2.28;;;;;;;12.36;69.22;100440.75;5061772;28;20149;-70
2022/05/29 07:47:28;;;;;;;7.57;2.28;;;;;;;12.45;69.09;100440.09;5055432;28;20055;-70
2022/05/29 07:49:58;;;;;;;10.38;2.75;;;;;;;12.56;68.55;100447.28;5037960;28;20068;-71
2022/05/29 07:52:26;;;;;;;7.20;1.90;;;;;;;12.62;68.28;100452.16;5053441;28;20068;-70
2022/05/29 07:54:54;;;;;;;13.00;2.15;;;;;;;12.76;67.93;100451.16;5033716;28;20660;-70
2022/05/29 07:57:21;;;;;;;9.32;2.33;;;;;;;12.72;67.00;100447.91;5030728;28;20459;-71
2022/05/29 07:59:48;;;;;;;11.77;2.13;;;;;;;12.71;67.19;100454.13;5035880;28;20052;-72
2022/05/29 08:02:16;;;;;;;7.03;2.67;;;;;;;12.72;67.52;100454.97;5049697;28;20053;-71
2022/05/29 08:04:44;;;;;;;7.88;2.85;;;;;;;12.84;67.67;100454.13;5019763;28;20049;-71
2022/05/29 08:07:14;;;;;;;10.23;2.38;;;;;;;12.82;67.11;100451.56;5041459;28;20495;-71
2022/05/29 08:09:42;;;;;;;7.88;2.33;;;;;;;12.92;67.73;100455.25;5032570;28;20452;-71
2022/05/29 08:12:09;;;;;;;4.45;2.25;;;;;;;12.88;67.20;100450.31;5042160;28;20479;-70
2022/05/29 08:14:36;;;;;;;6.97;1.70;;;;;;;12.92;67.61;100455.25;5032838;28;20515;-70
2022/05/29 08:17:03;;;;;;;7.50;1.80;;;;;;;13.17;68.27;100456.97;5031827;28;20051;-69
2022/05/29 08:19:34;;;;;;;10.48;2.38;;;;;;;13.32;66.91;100462.13;5034184;28;20560;-71
2022/05/29 08:22:02;;;;;;;9.07;1.85;;;;;;;13.28;67.67;100458.00;5012714;28;20095;-71
2022/05/29 08:33:03;;;;;;;9.10;3.60;;;;;;;13.60;66.78;100453.88;5026208;28;20036;-72
2022/05/29 08:35:31;;;;;;;6.25;2.20;;;;;;;13.82;67.28;100452.25;5043348;28;20060;-72
2022/05/29 08:37:59;;;;;;;6.55;1.77;;;;;;;13.97;65.43;100455.56;5029083;28;20135;-72
2022/05/29 08:40:27;;;;;;;5.93;2.05;;;;;;;13.93;64.07;100441.72;5031072;28;20063;-70
2022/05/29 08:42:54;;;;;;;10.05;2.00;;;;;;;13.91;62.70;100440.97;5063193;28;20064;-71
2022/05/29 08:45:22;;;;;;;5.10;1.52;;;;;;;14.10;63.38;100448.38;5031368;28;20044;-71
2022/05/29 08:47:50;;;;;;;8.18;1.63;;;;;;;14.19;60.05;100445.03;5014978;28;20075;-70
2022/05/29 08:50:44;;;;;;;8.65;1.67;;;;;;;14.15;61.32;100452.34;5045040;28;20055;-68
2022/05/29 08:53:31;;;;;;;6.75;1.88;;;;;;;14.18;59.59;100445.97;5045939;28;20356;-69
2022/05/29 08:56:30;;;;;;;5.68;1.48;;;;;;;14.08;58.57;100444.97;5027438;28;20663;-68
2022/05/29 08:59:42;;;;;;;5.97;1.90;;;;;;;14.07;58.33;100438.00;5070675;28;20155;-69
2022/05/29 09:02:09;;;;;;;5.30;1.27;;;;;;;13.91;58.01;100440.97;5035656;28;20059;-69
2022/05/29 09:04:45;;;;;;;3.83;1.70;;;;;;;14.24;58.29;100431.44;5055945;28;20048;-68
2022/05/29 09:07:18;;;;;;;4.45;1.30;;;;;;;14.72;57.83;100439.16;5035425;28;20098;-69
2022/05/29 09:09:56;;;;;;;4.80;1.30;;;;;;;14.96;56.51;100436.38;5068762;28;20052;-69
2022/05/29 09:12:56;;;;;;;3.60;1.63;;;;;;;15.27;55.67;100430.28;5051018;28;20041;-69
2022/05/29 09:15:39;;;;;;;3.50;1.30;;;;;;;15.32;55.57;100435.22;5012537;28;20052;-68
2022/05/29 09:18:16;;;;;;;6.95;1.52;;;;;;;15.06;55.73;100429.38;5042724;28;20045;-71
2022/05/29 09:21:04;;;;;;;5.05;1.42;;;;;;;14.78;56.25;100439.53;5025875;28;20057;-69
2022/05/29 09:23:41;;;;;;;5.45;1.52;;;;;;;14.45;56.23;100435.03;5067457;28;20120;-69
2022/05/29 09:26:21;;;;;;;9.45;1.70;;;;;;;13.71;58.31;100444.28;5038486;28;20064;-69
2022/05/29 09:28:48;;;;;;;8.82;1.58;;;;;;;13.79;59.38;100449.84;5048582;28;20059;-69
2022/05/29 09:31:20;;;;;;;2.83;1.42;;;;;;;13.52;61.88;100458.88;5048573;28;20040;-69
2022/05/29 09:33:48;;;;;;;6.32;1.90;;;;;;;13.43;63.62;100446.34;5076272;28;20052;-70
2022/05/29 09:36:44;;;;;;;2.88;1.35;;;;;;;13.52;64.40;100450.94;5069888;28;20063;-67
2022/05/29 09:39:25;;;;;;;12.30;1.50;;;;;;;13.68;63.61;100440.06;5036558;28;20060;-69
2022/05/29 09:42:11;;;;;;;4.32;1.73;;;;;;;13.99;63.21;100430.66;5047587;28;20514;-71
2022/05/29 09:44:38;;;;;;;;;;;;;;;14.16;62.26;100426.72;5072877;28;20071;-69
2022/05/29 09:50:09;;;;;;;3.47;1.40;;;;;;;14.06;62.05;100429.22;5053621;28;20060;-69
2022/05/29 09:52:41;;;;;;;4.28;1.83;;;;;;;14.05;62.29;100430.19;5036756;28;20105;-69
2022/05/29 09:55:17;;;;;;;3.22;1.30;;;;;;;13.86;62.47;100425.44;5029939;28;20051;-68
2022/05/29 09:58:00;;;;;;;4.40;1.70;;;;;;;13.68;62.83;100430.31;5066622;28;20415;-70
2022/05/29 10:00:29;;;;;;;8.00;1.75;;;;;;;13.39;63.49;100442.22;5051949;28;20044;-70
2022/05/29 10:02:57;;;;;;;4.03;1.60;;;;;;;13.10;64.62;100434.59;5030310;28;20040;-69
2022/05/29 10:05:27;;;;;;;4.97;1.40;;;;;;;12.95;65.99;100438.31;5069875;28;20992;-68
2022/05/29 10:08:00;;;;;;;5.05;1.88;;;;;;;12.75;69.70;100452.97;5053227;28;20104;-69
2022/05/29 10:10:30;;;;;;;7.40;1.90;;;;;;;12.71;71.44;100448.84;5052441;28;20098;-70
2022/05/29 10:12:59;;;;;;;4.85;1.42;;;;;;;12.80;71.67;100452.66;5020793;28;20048;-69
2022/05/29 10:15:26;;;;;;;3.90;1.52;;;;;;;12.85;72.51;100442.59;5046984;28;20067;-69
2022/05/29 10:17:56;;;;;;;3.75;1.63;;;;;;;12.97;72.47;100454.06;5047041;28;20053;-69
2022/05/29 10:20:35;;;;;;;3.40;1.35;;;;;;;13.26;72.86;100446.72;5041870;28;20056;-68
2022/05/29 10:23:06;;;;;;;3.63;1.85;;;;;;;13.45;72.46;100441.75;5043346;28;20052;-67
2022/05/29 10:25:55;;;;;;;6.40;1.65;;;;;;;13.73;71.66;100439.72;5026738;28;20075;-68
2022/05/29 10:28:27;;;;;;;5.95;1.55;;;;;;;13.79;71.34;100434.81;5061521;28;20087;-69
2022/05/29 10:31:00;;;;;;;6.70;1.75;;;;;;;13.84;69.00;100432.66;5019787;28;20136;-70
2022/05/29 10:33:29;;;;;;;5.93;2.08;;;;;;;14.12;70.14;100435.84;5038776;28;20423;-69
2022/05/29 10:36:09;;;;;;;7.10;2.40;;;;;;;14.43;69.10;100436.97;5026593;28;20055;-69
2022/05/29 10:38:37;;;;;;;5.57;1.83;;;;;;;14.77;68.47;100437.84;5040287;28;20483;-70
2022/05/29 10:41:06;;;;;;;6.55;2.38;;;;;;;15.05;67.16;100439.13;5025163;28;20144;-70
2022/05/29 10:43:51;;;;;;;6.22;2.00;;;;;;;15.32;66.86;100433.41;5050384;28;20537;-69
2022/05/29 10:46:43;;;;;;;7.60;2.22;;;;;;;15.29;66.59;100438.09;5035892;28;20052;-68
2022/05/29 10:49:26;;;;;;;6.03;1.60;;;;;;;15.64;65.40;100430.78;5029261;28;20057;-69
2022/05/29 10:52:23;;;;;;;7.13;1.40;;;;;;;15.77;62.96;100427.09;5054952;28;20731;-69
2022/05/29 10:55:15;;;;;;;4.43;1.83;;;;;;;15.52;58.98;100433.56;5051115;28;20534;-69
2022/05/29 10:57:45;;;;;;;4.07;1.40;;;;;;;14.94;60.03;100439.97;5038073;28;20053;-70
2022/05/29 11:00:49;;;;;;;5.72;1.67;;;;;;;14.83;60.29;100437.34;5064840;28;20051;-68
2022/05/29 11:03:33;;;;;;;4.30;1.45;;;;;;;14.54;59.12;100421.09;5032246;28;20059;-70
2022/05/29 11:06:29;;;;;;;2.70;1.40;;;;;;;14.83;60.98;100437.34;5046148;28;20167;-69
2022/05/29 11:09:28;;;;;;;3.05;1.25;;;;;;;15.24;59.46;100429.69;5039001;28;20175;-69
2022/05/29 11:12:20;;;;;;;2.58;1.13;;;;;;;15.40;54.87;100432.75;5045601;28;20058;-69
2022/05/29 11:15:28;;;;;;;4.00;1.10;;;;;;;15.42;55.89;100428.19;5044700;28;20056;-69
2022/05/29 11:18:07;;;;;;;4.53;1.10;;;;;;;15.84;54.91;100433.56;5043929;28;20053;-70
2022/05/29 11:20:45;;;;;;;2.15;1.10;;;;;;;16.01;53.05;100417.06;5039051;28;20055;-70
2022/05/29 11:23:37;;;;;;;3.33;1.05;;;;;;;15.90;52.75;100420.63;5048008;28;20044;-69
2022/05/29 11:26:35;;;;;;;5.38;1.73;;;;;;;16.10;52.36;100413.63;5058370;28;20056;-69
2022/05/29 11:29:24;;;;;;;6.68;1.67;;;;;;;16.29;52.41;100412.88;5061464;28;20066;-70
2022/05/29 11:32:24;;;;;;;5.93;1.55;;;;;;;16.67;52.08;100404.22;5058315;28;20591;-71
2022/05/29 11:35:05;;;;;;;3.33;1.10;;;;;;;16.98;50.70;100403.38;5019781;28;20071;-71
2022/05/29 11:38:05;;;;;;;3.65;1.05;;;;;;;17.21;50.76;100413.63;5059783;28;20052;-71
2022/05/29 11:40:37;;;;;;;4.38;1.25;;;;;;;16.92;48.90;100404.75;5027980;28;20128;-69
2022/05/29 11:43:11;;;;;;;3.08;1.08;;;;;;;16.98;50.37;100404.22;5020689;28;20049;-70
2022/05/29 11:51:37;;;;;;;4.57;1.73;;;;;;;15.52;56.23;100407.88;5023447;28;20422;-70
2022/05/29 11:54:18;;;;;;;3.75;1.30;;;;;;;15.15;57.96;100410.06;5041376;28;20621;-71
2022/05/29 11:57:00;;;;;;;5.25;1.33;;;;;;;14.78;59.33;100406.91;5027705;28;20058;-71
2022/05/29 11:59:38;;;;;;;3.85;1.40;;;;;;;14.93;58.11;100405.66;5039534;28;20055;-71
2022/05/29 12:02:37;;;;;;;4.22;1.88;;;;;;;14.90;57.39;100390.84;5060420;28;20112;-70
2022/05/29 12:05:26;;;;;;;5.13;1.70;;;;;;;15.06;58.10;100394.91;5058061;28;20537;-69
2022/05/29 12:08:15;;;;;;;3.42;1.17;;;;;;;15.37;56.84;100395.88;5045334;28;20203;-70
2022/05/29 12:11:03;;;;;;;4.88;1.60;;;;;;;15.68;53.77;100399.53;5045968;28;20052;-70
2022/05/29 12:13:36;;;;;;;6.85;1.55;;;;;;;16.02;53.69;100396.66;5046049;28;20067;-70
2022/05/29 12:16:08;;;;;;;5.82;1.80;;;;;;;16.35;52.72;100396.41;5037394;28;20087;-70
2022/05/29 12:18:50;;;;;;;3.35;1.23;;;;;;;16.51;48.63;100389.75;5029329;28;20045;-70
2022/05/29 12:21:30;;;;;;;4.55;1.48;;;;;;;16.71;49.04;100391.53;5030835;28;20044;-69
2022/05/29 12:24:00;;;;;;;4.35;0.98;;;;;;;16.97;47.33;100391.88;5015484;28;20036;-70
2022/05/29 12:26:35;;;;;;;2.70;1.25;;;;;;;17.33;47.58;100386.88;5048497;28;20147;-70
2022/05/29 12:29:34;;;;;;;2.47;1.00;;;;;;;18.05;46.00;100377.56;5032358;28;20052;-71
2022/05/29 12:32:31;;;;;;;4.32;1.00;;;;;;;18.35;45.06;100373.81;5018537;28;20501;-70
2022/05/29 12:35:17;;;;;;;1.90;0.90;;;;;;;18.42;44.92;100370.44;5035871;28;20045;-70
2022/05/29 12:38:04;;;;;;;6.95;1.52;;;;;;;18.28;45.15;100372.72;5048641;28;20510;-70
2022/05/29 12:40:53;;;;;;;3.10;1.20;;;;;;;18.25;45.13;100376.53;5061400;28;20393;-70